Terminal Aerodrome Forecast
Issued by NWS

Home | Current Version | Previous Version | Text Only | Print | Product List | Glossary On
Versions: 1 2 3 4 5 6 7 8 9 10 11 12 13 14 15 16 17
000
FTUS42 KTBW 202300
TAFPGD
TAF
KPGD 202328Z 2100/2124 VRB03KT P6SM SCT100
     FM210900 VRB02KT 4SM BR SCT110 BKN250
     FM211300 12007KT P6SM SCT020 BKN080 BKN250
     FM212100 20007KT P6SM OVC050=

USA.gov is the U.S. government's official web portal to all federal, state and local government web resources and services.